sensor_id;sensor_type;location;lat;lon;timestamp;temperature;humidity
8715;DHT22;4394;51.208;8.904;2022-08-01T00:00:44;20.20;99.90
8715;DHT22;4394;51.208;8.904;2022-08-01T00:03:32;20.20;99.90
8715;DHT22;4394;51.208;8.904;2022-08-01T00:06:20;20.20;99.90
8715;DHT22;4394;51.208;8.904;2022-08-01T00:09:07;20.20;99.90
8715;DHT22;4394;51.208;8.904;2022-08-01T00:12:09;20.20;99.90
8715;DHT22;4394;51.208;8.904;2022-08-01T00:14:59;20.10;99.90
8715;DHT22;4394;51.208;8.904;2022-08-01T00:17:47;20.10;99.90
8715;DHT22;4394;51.208;8.904;2022-08-01T00:20:35;20.10;99.90
8715;DHT22;4394;51.208;8.904;2022-08-01T00:23:23;20.10;99.90
8715;DHT22;4394;51.208;8.904;2022-08-01T00:26:11;20.10;99.90
8715;DHT22;4394;51.208;8.904;2022-08-01T00:28:59;20.10;99.90
8715;DHT22;4394;51.208;8.904;2022-08-01T00:31:48;20.10;99.90
8715;DHT22;4394;51.208;8.904;2022-08-01T00:34:36;20.10;99.90
8715;DHT22;4394;51.208;8.904;2022-08-01T00:37:24;20.10;99.90
8715;DHT22;4394;51.208;8.904;2022-08-01T00:40:12;20.10;99.90
8715;DHT22;4394;51.208;8.904;2022-08-01T00:43:00;20.10;99.90
8715;DHT22;4394;51.208;8.904;2022-08-01T00:45:48;20.10;99.90
8715;DHT22;4394;51.208;8.904;2022-08-01T00:48:38;20.10;99.90
8715;DHT22;4394;51.208;8.904;2022-08-01T00:51:26;20.10;99.90
8715;DHT22;4394;51.208;8.904;2022-08-01T00:54:14;20.10;99.90
8715;DHT22;4394;51.208;8.904;2022-08-01T00:57:03;20.10;99.90
8715;DHT22;4394;51.208;8.904;2022-08-01T00:59:56;20.00;99.90
8715;DHT22;4394;51.208;8.904;2022-08-01T01:02:44;20.00;99.90
8715;DHT22;4394;51.208;8.904;2022-08-01T01:05:48;20.00;99.90
8715;DHT22;4394;51.208;8.904;2022-08-01T01:08:41;20.00;99.90
8715;DHT22;4394;51.208;8.904;2022-08-01T01:11:36;20.00;99.90
8715;DHT22;4394;51.208;8.904;2022-08-01T01:14:33;20.00;99.90
8715;DHT22;4394;51.208;8.904;2022-08-01T01:17:27;20.00;99.90
8715;DHT22;4394;51.208;8.904;2022-08-01T01:20:40;20.00;99.90
8715;DHT22;4394;51.208;8.904;2022-08-01T01:23:44;19.90;99.90
8715;DHT22;4394;51.208;8.904;2022-08-01T01:26:40;19.90;99.90
8715;DHT22;4394;51.208;8.904;2022-08-01T01:29:34;19.80;99.90
8715;DHT22;4394;51.208;8.904;2022-08-01T01:32:44;19.70;99.90
8715;DHT22;4394;51.208;8.904;2022-08-01T01:35:36;19.60;99.90
8715;DHT22;4394;51.208;8.904;2022-08-01T01:38:29;19.70;99.90
8715;DHT22;4394;51.208;8.904;2022-08-01T01:41:20;19.70;99.90
8715;DHT22;4394;51.208;8.904;2022-08-01T01:44:09;19.60;99.90
8715;DHT22;4394;51.208;8.904;2022-08-01T01:46:59;19.60;99.90
8715;DHT22;4394;51.208;8.904;2022-08-01T01:49:49;19.60;99.90
8715;DHT22;4394;51.208;8.904;2022-08-01T01:52:38;19.60;99.90
8715;DHT22;4394;51.208;8.904;2022-08-01T01:55:27;19.60;99.90
8715;DHT22;4394;51.208;8.904;2022-08-01T01:58:16;19.60;99.90
8715;DHT22;4394;51.208;8.904;2022-08-01T02:01:06;19.60;99.90
8715;DHT22;4394;51.208;8.904;2022-08-01T02:04:02;19.60;99.90
8715;DHT22;4394;51.208;8.904;2022-08-01T02:06:51;19.50;99.90
8715;DHT22;4394;51.208;8.904;2022-08-01T02:09:42;19.50;99.90
8715;DHT22;4394;51.208;8.904;2022-08-01T02:12:32;19.60;99.90
8715;DHT22;4394;51.208;8.904;2022-08-01T02:15:22;19.60;99.90
8715;DHT22;4394;51.208;8.904;2022-08-01T02:18:11;19.60;99.90
8715;DHT22;4394;51.208;8.904;2022-08-01T02:21:04;19.70;99.90
8715;DHT22;4394;51.208;8.904;2022-08-01T02:23:53;19.70;99.90
8715;DHT22;4394;51.208;8.904;2022-08-01T02:26:46;19.70;99.90
8715;DHT22;4394;51.208;8.904;2022-08-01T02:29:39;19.70;99.90
8715;DHT22;4394;51.208;8.904;2022-08-01T02:32:31;19.60;99.90
8715;DHT22;4394;51.208;8.904;2022-08-01T02:35:23;19.60;99.90
8715;DHT22;4394;51.208;8.904;2022-08-01T02:38:17;19.60;99.90
8715;DHT22;4394;51.208;8.904;2022-08-01T02:41:07;19.50;99.90
8715;DHT22;4394;51.208;8.904;2022-08-01T02:43:58;19.50;99.90
8715;DHT22;4394;51.208;8.904;2022-08-01T02:46:51;19.50;99.90
8715;DHT22;4394;51.208;8.904;2022-08-01T02:49:42;19.50;99.90
8715;DHT22;4394;51.208;8.904;2022-08-01T02:52:40;19.40;99.90
8715;DHT22;4394;51.208;8.904;2022-08-01T02:55:32;19.40;99.90
8715;DHT22;4394;51.208;8.904;2022-08-01T02:58:20;19.50;99.90
8715;DHT22;4394;51.208;8.904;2022-08-01T03:01:16;19.50;99.90
8715;DHT22;4394;51.208;8.904;2022-08-01T03:04:07;19.50;99.90
8715;DHT22;4394;51.208;8.904;2022-08-01T03:06:56;19.50;99.90
8715;DHT22;4394;51.208;8.904;2022-08-01T03:09:46;19.50;99.90
8715;DHT22;4394;51.208;8.904;2022-08-01T03:12:37;19.60;99.90
8715;DHT22;4394;51.208;8.904;2022-08-01T03:15:28;19.50;99.90
8715;DHT22;4394;51.208;8.904;2022-08-01T03:18:18;19.60;99.90
8715;DHT22;4394;51.208;8.904;2022-08-01T03:21:06;19.60;99.90
8715;DHT22;4394;51.208;8.904;2022-08-01T03:23:58;19.60;99.90
8715;DHT22;4394;51.208;8.904;2022-08-01T03:26:47;19.60;99.90
8715;DHT22;4394;51.208;8.904;2022-08-01T03:29:38;19.50;99.90
8715;DHT22;4394;51.208;8.904;2022-08-01T03:32:28;19.60;99.90
8715;DHT22;4394;51.208;8.904;2022-08-01T03:35:17;19.60;99.90
8715;DHT22;4394;51.208;8.904;2022-08-01T03:38:08;19.50;99.90
8715;DHT22;4394;51.208;8.904;2022-08-01T03:41:05;19.50;99.90
8715;DHT22;4394;51.208;8.904;2022-08-01T03:44:00;19.40;99.90
8715;DHT22;4394;51.208;8.904;2022-08-01T03:46:56;19.30;99.90
8715;DHT22;4394;51.208;8.904;2022-08-01T03:49:46;19.30;99.90
8715;DHT22;4394;51.208;8.904;2022-08-01T03:52:38;19.20;99.90
8715;DHT22;4394;51.208;8.904;2022-08-01T03:55:27;19.20;99.90
8715;DHT22;4394;51.208;8.904;2022-08-01T03:58:16;19.10;99.90
8715;DHT22;4394;51.208;8.904;2022-08-01T04:01:05;19.10;99.90
8715;DHT22;4394;51.208;8.904;2022-08-01T04:04:03;19.00;99.90
8715;DHT22;4394;51.208;8.904;2022-08-01T04:06:52;19.00;99.90
8715;DHT22;4394;51.208;8.904;2022-08-01T04:09:41;19.00;99.90
8715;DHT22;4394;51.208;8.904;2022-08-01T04:12:29;19.00;99.90
8715;DHT22;4394;51.208;8.904;2022-08-01T04:15:17;18.90;99.90
8715;DHT22;4394;51.208;8.904;2022-08-01T04:18:06;18.90;99.90
8715;DHT22;4394;51.208;8.904;2022-08-01T04:20:56;19.00;99.90
8715;DHT22;4394;51.208;8.904;2022-08-01T04:23:46;19.00;99.90
8715;DHT22;4394;51.208;8.904;2022-08-01T04:26:39;19.10;99.90
8715;DHT22;4394;51.208;8.904;2022-08-01T04:29:30;19.00;99.90
8715;DHT22;4394;51.208;8.904;2022-08-01T04:32:21;19.00;99.90
8715;DHT22;4394;51.208;8.904;2022-08-01T04:35:12;19.00;99.90
8715;DHT22;4394;51.208;8.904;2022-08-01T04:38:25;19.10;99.90
8715;DHT22;4394;51.208;8.904;2022-08-01T04:41:15;19.10;99.90
8715;DHT22;4394;51.208;8.904;2022-08-01T04:44:04;19.20;99.90
8715;DHT22;4394;51.208;8.904;2022-08-01T04:46:54;19.20;99.90
8715;DHT22;4394;51.208;8.904;2022-08-01T04:49:43;19.20;99.90
8715;DHT22;4394;51.208;8.904;2022-08-01T04:52:35;19.20;99.90
8715;DHT22;4394;51.208;8.904;2022-08-01T04:55:24;19.20;99.90
8715;DHT22;4394;51.208;8.904;2022-08-01T04:58:13;19.20;99.90
8715;DHT22;4394;51.208;8.904;2022-08-01T05:01:04;19.20;99.90
8715;DHT22;4394;51.208;8.904;2022-08-01T05:03:52;19.10;99.90
8715;DHT22;4394;51.208;8.904;2022-08-01T05:06:40;19.10;99.90
8715;DHT22;4394;51.208;8.904;2022-08-01T05:09:28;19.10;99.90
8715;DHT22;4394;51.208;8.904;2022-08-01T05:12:18;19.10;99.90
8715;DHT22;4394;51.208;8.904;2022-08-01T05:15:08;19.20;99.90
8715;DHT22;4394;51.208;8.904;2022-08-01T05:18:01;19.20;99.90
8715;DHT22;4394;51.208;8.904;2022-08-01T05:20:49;19.20;99.90
8715;DHT22;4394;51.208;8.904;2022-08-01T05:23:37;19.20;99.90
8715;DHT22;4394;51.208;8.904;2022-08-01T05:26:28;19.20;99.90
8715;DHT22;4394;51.208;8.904;2022-08-01T05:29:18;19.30;99.90
8715;DHT22;4394;51.208;8.904;2022-08-01T05:32:06;19.30;99.90
8715;DHT22;4394;51.208;8.904;2022-08-01T05:34:55;19.30;99.90
8715;DHT22;4394;51.208;8.904;2022-08-01T05:37:43;19.40;99.90
8715;DHT22;4394;51.208;8.904;2022-08-01T05:40:30;19.40;99.90
8715;DHT22;4394;51.208;8.904;2022-08-01T05:43:19;19.40;99.90
8715;DHT22;4394;51.208;8.904;2022-08-01T05:46:15;19.30;99.90
8715;DHT22;4394;51.208;8.904;2022-08-01T05:49:04;19.30;99.90
8715;DHT22;4394;51.208;8.904;2022-08-01T05:51:52;19.30;99.90
8715;DHT22;4394;51.208;8.904;2022-08-01T05:54:40;19.30;99.90
8715;DHT22;4394;51.208;8.904;2022-08-01T05:57:28;19.20;99.90
8715;DHT22;4394;51.208;8.904;2022-08-01T06:00:16;19.30;99.90
8715;DHT22;4394;51.208;8.904;2022-08-01T06:03:05;19.30;99.90
8715;DHT22;4394;51.208;8.904;2022-08-01T06:05:53;19.40;99.90
8715;DHT22;4394;51.208;8.904;2022-08-01T06:08:41;19.50;99.90
8715;DHT22;4394;51.208;8.904;2022-08-01T06:11:29;19.50;99.90
8715;DHT22;4394;51.208;8.904;2022-08-01T06:14:17;19.50;99.90
8715;DHT22;4394;51.208;8.904;2022-08-01T06:17:05;19.50;99.90
8715;DHT22;4394;51.208;8.904;2022-08-01T06:19:54;19.50;99.90
8715;DHT22;4394;51.208;8.904;2022-08-01T06:22:42;19.50;99.90
8715;DHT22;4394;51.208;8.904;2022-08-01T06:25:38;19.50;99.90
8715;DHT22;4394;51.208;8.904;2022-08-01T06:28:26;19.50;99.90
8715;DHT22;4394;51.208;8.904;2022-08-01T06:31:14;19.50;99.90
8715;DHT22;4394;51.208;8.904;2022-08-01T06:34:02;19.50;99.90
8715;DHT22;4394;51.208;8.904;2022-08-01T06:36:51;19.60;99.90
8715;DHT22;4394;51.208;8.904;2022-08-01T06:39:39;19.60;99.90
8715;DHT22;4394;51.208;8.904;2022-08-01T06:42:27;19.80;99.90
8715;DHT22;4394;51.208;8.904;2022-08-01T06:45:18;19.70;99.90
8715;DHT22;4394;51.208;8.904;2022-08-01T06:48:08;19.70;99.90
8715;DHT22;4394;51.208;8.904;2022-08-01T06:50:56;19.70;99.90
8715;DHT22;4394;51.208;8.904;2022-08-01T06:53:56;19.70;99.90
8715;DHT22;4394;51.208;8.904;2022-08-01T06:56:44;19.60;99.90
8715;DHT22;4394;51.208;8.904;2022-08-01T06:59:32;19.70;99.90
8715;DHT22;4394;51.208;8.904;2022-08-01T07:02:21;19.80;99.90
8715;DHT22;4394;51.208;8.904;2022-08-01T07:05:09;19.80;99.90
8715;DHT22;4394;51.208;8.904;2022-08-01T07:07:57;19.90;99.90
8715;DHT22;4394;51.208;8.904;2022-08-01T07:10:46;20.00;99.90
8715;DHT22;4394;51.208;8.904;2022-08-01T07:13:34;20.10;99.90
8715;DHT22;4394;51.208;8.904;2022-08-01T07:16:31;20.10;99.90
8715;DHT22;4394;51.208;8.904;2022-08-01T07:19:19;20.10;99.90
8715;DHT22;4394;51.208;8.904;2022-08-01T07:22:07;20.00;99.90
8715;DHT22;4394;51.208;8.904;2022-08-01T07:24:56;20.00;99.90
8715;DHT22;4394;51.208;8.904;2022-08-01T07:27:45;19.90;99.90
8715;DHT22;4394;51.208;8.904;2022-08-01T07:30:33;19.90;99.90
8715;DHT22;4394;51.208;8.904;2022-08-01T07:33:22;19.90;99.90
8715;DHT22;4394;51.208;8.904;2022-08-01T07:36:10;19.90;99.90
8715;DHT22;4394;51.208;8.904;2022-08-01T07:38:58;19.90;99.90
8715;DHT22;4394;51.208;8.904;2022-08-01T07:41:46;19.90;99.90
8715;DHT22;4394;51.208;8.904;2022-08-01T07:44:55;20.00;99.90
8715;DHT22;4394;51.208;8.904;2022-08-01T07:47:44;20.00;99.90
8715;DHT22;4394;51.208;8.904;2022-08-01T07:50:32;20.10;99.90
8715;DHT22;4394;51.208;8.904;2022-08-01T07:53:20;20.10;99.90
8715;DHT22;4394;51.208;8.904;2022-08-01T07:56:08;20.20;99.90
8715;DHT22;4394;51.208;8.904;2022-08-01T07:58:56;20.40;99.90
8715;DHT22;4394;51.208;8.904;2022-08-01T08:01:46;20.40;99.90
8715;DHT22;4394;51.208;8.904;2022-08-01T08:04:34;20.40;99.90
8715;DHT22;4394;51.208;8.904;2022-08-01T08:07:22;20.40;99.90
8715;DHT22;4394;51.208;8.904;2022-08-01T08:10:10;20.40;99.90
8715;DHT22;4394;51.208;8.904;2022-08-01T08:12:58;20.40;99.90
8715;DHT22;4394;51.208;8.904;2022-08-01T08:15:47;20.30;99.90
8715;DHT22;4394;51.208;8.904;2022-08-01T08:18:37;20.20;99.90
8715;DHT22;4394;51.208;8.904;2022-08-01T08:21:25;20.20;99.90
8715;DHT22;4394;51.208;8.904;2022-08-01T08:24:14;20.20;99.90
8715;DHT22;4394;51.208;8.904;2022-08-01T08:27:13;20.30;99.90
8715;DHT22;4394;51.208;8.904;2022-08-01T08:30:01;20.40;99.90
8715;DHT22;4394;51.208;8.904;2022-08-01T08:32:49;20.50;99.90
8715;DHT22;4394;51.208;8.904;2022-08-01T08:35:40;20.60;99.90
8715;DHT22;4394;51.208;8.904;2022-08-01T08:38:40;20.50;99.90
8715;DHT22;4394;51.208;8.904;2022-08-01T08:41:29;20.50;99.90
8715;DHT22;4394;51.208;8.904;2022-08-01T08:44:23;20.60;99.90
8715;DHT22;4394;51.208;8.904;2022-08-01T08:47:12;20.70;99.90
8715;DHT22;4394;51.208;8.904;2022-08-01T08:50:06;20.80;99.90
8715;DHT22;4394;51.208;8.904;2022-08-01T08:53:00;20.80;99.90
8715;DHT22;4394;51.208;8.904;2022-08-01T08:55:52;20.90;99.90
8715;DHT22;4394;51.208;8.904;2022-08-01T08:58:44;21.00;99.90
8715;DHT22;4394;51.208;8.904;2022-08-01T09:01:32;21.20;99.90
8715;DHT22;4394;51.208;8.904;2022-08-01T09:04:21;21.10;99.90
8715;DHT22;4394;51.208;8.904;2022-08-01T09:07:12;21.10;99.90
8715;DHT22;4394;51.208;8.904;2022-08-01T09:10:03;21.00;99.90
8715;DHT22;4394;51.208;8.904;2022-08-01T09:13:06;21.00;99.90
8715;DHT22;4394;51.208;8.904;2022-08-01T09:15:55;21.00;99.90
8715;DHT22;4394;51.208;8.904;2022-08-01T09:18:45;20.90;99.90
8715;DHT22;4394;51.208;8.904;2022-08-01T09:21:40;21.00;99.90
8715;DHT22;4394;51.208;8.904;2022-08-01T09:25:00;21.20;99.90
8715;DHT22;4394;51.208;8.904;2022-08-01T09:28:02;21.30;99.90
8715;DHT22;4394;51.208;8.904;2022-08-01T09:30:51;21.40;99.90
8715;DHT22;4394;51.208;8.904;2022-08-01T09:33:50;21.50;99.90
8715;DHT22;4394;51.208;8.904;2022-08-01T09:36:49;21.60;99.90
8715;DHT22;4394;51.208;8.904;2022-08-01T09:39:55;21.60;99.90
8715;DHT22;4394;51.208;8.904;2022-08-01T09:42:44;21.80;99.90
8715;DHT22;4394;51.208;8.904;2022-08-01T09:45:39;21.90;99.90
8715;DHT22;4394;51.208;8.904;2022-08-01T09:48:31;22.00;99.90
8715;DHT22;4394;51.208;8.904;2022-08-01T09:51:28;22.00;99.90
8715;DHT22;4394;51.208;8.904;2022-08-01T09:54:36;22.20;99.90
8715;DHT22;4394;51.208;8.904;2022-08-01T09:57:26;22.20;99.90
8715;DHT22;4394;51.208;8.904;2022-08-01T10:00:17;22.30;99.90
8715;DHT22;4394;51.208;8.904;2022-08-01T10:03:26;22.30;99.90
8715;DHT22;4394;51.208;8.904;2022-08-01T10:06:20;22.30;99.90
8715;DHT22;4394;51.208;8.904;2022-08-01T10:09:12;22.40;99.90
8715;DHT22;4394;51.208;8.904;2022-08-01T10:12:02;22.50;99.90
8715;DHT22;4394;51.208;8.904;2022-08-01T10:14:50;22.50;99.90
8715;DHT22;4394;51.208;8.904;2022-08-01T10:17:46;22.60;99.90
8715;DHT22;4394;51.208;8.904;2022-08-01T10:20:41;22.70;99.90
8715;DHT22;4394;51.208;8.904;2022-08-01T10:23:33;23.00;99.90
8715;DHT22;4394;51.208;8.904;2022-08-01T10:26:29;23.10;99.90
8715;DHT22;4394;51.208;8.904;2022-08-01T10:29:20;23.00;99.90
8715;DHT22;4394;51.208;8.904;2022-08-01T10:32:29;23.00;99.90
8715;DHT22;4394;51.208;8.904;2022-08-01T10:35:18;22.90;99.90
8715;DHT22;4394;51.208;8.904;2022-08-01T10:38:28;22.90;99.90
8715;DHT22;4394;51.208;8.904;2022-08-01T10:41:18;23.10;99.90
8715;DHT22;4394;51.208;8.904;2022-08-01T10:44:08;23.30;99.90
8715;DHT22;4394;51.208;8.904;2022-08-01T10:47:01;23.50;99.90
8715;DHT22;4394;51.208;8.904;2022-08-01T10:50:01;23.50;99.90
8715;DHT22;4394;51.208;8.904;2022-08-01T10:53:10;23.70;99.90
8715;DHT22;4394;51.208;8.904;2022-08-01T10:56:10;23.80;99.90
8715;DHT22;4394;51.208;8.904;2022-08-01T10:59:03;23.80;99.90
8715;DHT22;4394;51.208;8.904;2022-08-01T11:01:59;24.00;99.90
8715;DHT22;4394;51.208;8.904;2022-08-01T11:04:54;24.10;99.90
8715;DHT22;4394;51.208;8.904;2022-08-01T11:07:45;24.10;99.90
8715;DHT22;4394;51.208;8.904;2022-08-01T11:10:38;24.10;99.90
8715;DHT22;4394;51.208;8.904;2022-08-01T11:14:04;24.10;99.90
8715;DHT22;4394;51.208;8.904;2022-08-01T11:17:32;24.10;99.90
8715;DHT22;4394;51.208;8.904;2022-08-01T11:20:29;24.00;99.90
8715;DHT22;4394;51.208;8.904;2022-08-01T11:23:19;24.10;99.90
8715;DHT22;4394;51.208;8.904;2022-08-01T11:26:15;24.40;99.90
8715;DHT22;4394;51.208;8.904;2022-08-01T11:29:16;24.40;99.90
8715;DHT22;4394;51.208;8.904;2022-08-01T11:32:23;24.50;99.90
8715;DHT22;4394;51.208;8.904;2022-08-01T11:35:11;24.70;99.90
8715;DHT22;4394;51.208;8.904;2022-08-01T11:38:23;24.90;99.90
8715;DHT22;4394;51.208;8.904;2022-08-01T11:41:16;25.10;99.90
8715;DHT22;4394;51.208;8.904;2022-08-01T11:44:25;25.10;99.90
8715;DHT22;4394;51.208;8.904;2022-08-01T11:47:17;25.50;99.90
8715;DHT22;4394;51.208;8.904;2022-08-01T11:50:30;25.60;99.90
8715;DHT22;4394;51.208;8.904;2022-08-01T11:53:19;25.70;99.90
8715;DHT22;4394;51.208;8.904;2022-08-01T11:56:07;25.50;99.90
8715;DHT22;4394;51.208;8.904;2022-08-01T11:58:58;25.20;99.90
8715;DHT22;4394;51.208;8.904;2022-08-01T12:01:48;25.30;99.90
8715;DHT22;4394;51.208;8.904;2022-08-01T12:04:48;25.60;99.90
8715;DHT22;4394;51.208;8.904;2022-08-01T12:07:37;26.00;99.90
8715;DHT22;4394;51.208;8.904;2022-08-01T12:10:28;26.20;99.90
8715;DHT22;4394;51.208;8.904;2022-08-01T12:13:20;26.30;99.90
8715;DHT22;4394;51.208;8.904;2022-08-01T12:16:09;26.40;99.90
8715;DHT22;4394;51.208;8.904;2022-08-01T12:18:59;26.20;99.90
8715;DHT22;4394;51.208;8.904;2022-08-01T12:22:06;26.00;99.90
8715;DHT22;4394;51.208;8.904;2022-08-01T12:24:54;26.10;99.90
8715;DHT22;4394;51.208;8.904;2022-08-01T12:27:44;26.20;99.90
8715;DHT22;4394;51.208;8.904;2022-08-01T12:30:33;26.10;99.90
8715;DHT22;4394;51.208;8.904;2022-08-01T12:33:22;25.90;99.90
8715;DHT22;4394;51.208;8.904;2022-08-01T12:36:12;25.90;99.90
8715;DHT22;4394;51.208;8.904;2022-08-01T12:39:00;26.10;99.90
8715;DHT22;4394;51.208;8.904;2022-08-01T12:41:49;26.10;99.90
8715;DHT22;4394;51.208;8.904;2022-08-01T12:44:38;25.90;99.90
8715;DHT22;4394;51.208;8.904;2022-08-01T12:47:26;25.90;99.90
8715;DHT22;4394;51.208;8.904;2022-08-01T12:50:16;25.80;99.90
8715;DHT22;4394;51.208;8.904;2022-08-01T12:53:08;25.90;99.90
8715;DHT22;4394;51.208;8.904;2022-08-01T12:56:02;26.20;99.90
8715;DHT22;4394;51.208;8.904;2022-08-01T12:58:51;26.40;99.90
8715;DHT22;4394;51.208;8.904;2022-08-01T13:01:40;26.50;99.90
8715;DHT22;4394;51.208;8.904;2022-08-01T13:04:28;26.70;99.90
8715;DHT22;4394;51.208;8.904;2022-08-01T13:07:16;26.90;99.90
8715;DHT22;4394;51.208;8.904;2022-08-01T13:10:07;26.90;99.90
8715;DHT22;4394;51.208;8.904;2022-08-01T13:12:57;26.90;99.90
8715;DHT22;4394;51.208;8.904;2022-08-01T13:15:46;27.00;99.90
8715;DHT22;4394;51.208;8.904;2022-08-01T13:18:35;26.80;99.90
8715;DHT22;4394;51.208;8.904;2022-08-01T13:21:24;26.80;99.90
8715;DHT22;4394;51.208;8.904;2022-08-01T13:24:13;26.70;99.90
8715;DHT22;4394;51.208;8.904;2022-08-01T13:27:03;26.40;99.90
8715;DHT22;4394;51.208;8.904;2022-08-01T13:29:51;26.40;99.90
8715;DHT22;4394;51.208;8.904;2022-08-01T13:32:40;26.20;99.90
8715;DHT22;4394;51.208;8.904;2022-08-01T13:35:30;26.20;99.90
8715;DHT22;4394;51.208;8.904;2022-08-01T13:38:19;26.10;99.90
8715;DHT22;4394;51.208;8.904;2022-08-01T13:41:28;25.90;99.90
8715;DHT22;4394;51.208;8.904;2022-08-01T13:44:17;25.60;99.90
8715;DHT22;4394;51.208;8.904;2022-08-01T13:47:06;25.50;99.90
8715;DHT22;4394;51.208;8.904;2022-08-01T13:50:02;25.40;99.90
8715;DHT22;4394;51.208;8.904;2022-08-01T13:52:51;25.40;99.90
8715;DHT22;4394;51.208;8.904;2022-08-01T13:55:39;25.50;99.90
8715;DHT22;4394;51.208;8.904;2022-08-01T13:58:28;25.40;99.90
8715;DHT22;4394;51.208;8.904;2022-08-01T14:01:19;25.40;99.90
8715;DHT22;4394;51.208;8.904;2022-08-01T14:04:07;25.80;99.90
8715;DHT22;4394;51.208;8.904;2022-08-01T14:06:55;26.10;99.90
8715;DHT22;4394;51.208;8.904;2022-08-01T14:09:45;26.00;99.90
8715;DHT22;4394;51.208;8.904;2022-08-01T14:12:55;25.90;99.90
8715;DHT22;4394;51.208;8.904;2022-08-01T14:15:43;26.10;99.90
8715;DHT22;4394;51.208;8.904;2022-08-01T14:18:34;26.10;99.90
8715;DHT22;4394;51.208;8.904;2022-08-01T14:21:24;26.20;99.90
8715;DHT22;4394;51.208;8.904;2022-08-01T14:24:12;26.20;99.90
8715;DHT22;4394;51.208;8.904;2022-08-01T14:27:01;26.40;99.90
8715;DHT22;4394;51.208;8.904;2022-08-01T14:29:49;26.50;99.90
8715;DHT22;4394;51.208;8.904;2022-08-01T14:32:50;26.50;99.90
8715;DHT22;4394;51.208;8.904;2022-08-01T14:35:42;26.30;99.90
8715;DHT22;4394;51.208;8.904;2022-08-01T14:38:49;26.20;99.90
8715;DHT22;4394;51.208;8.904;2022-08-01T14:41:38;26.20;99.90
8715;DHT22;4394;51.208;8.904;2022-08-01T14:44:28;26.00;99.90
8715;DHT22;4394;51.208;8.904;2022-08-01T14:47:19;26.00;99.90
8715;DHT22;4394;51.208;8.904;2022-08-01T14:50:10;26.10;99.90
8715;DHT22;4394;51.208;8.904;2022-08-01T14:52:59;26.00;99.90
8715;DHT22;4394;51.208;8.904;2022-08-01T14:55:47;26.10;99.90
8715;DHT22;4394;51.208;8.904;2022-08-01T14:58:35;26.00;99.90
8715;DHT22;4394;51.208;8.904;2022-08-01T15:01:23;26.00;99.90
8715;DHT22;4394;51.208;8.904;2022-08-01T15:04:11;26.00;99.90
8715;DHT22;4394;51.208;8.904;2022-08-01T15:06:59;26.00;99.90
8715;DHT22;4394;51.208;8.904;2022-08-01T15:09:49;25.90;99.90
8715;DHT22;4394;51.208;8.904;2022-08-01T15:12:37;26.00;99.90
8715;DHT22;4394;51.208;8.904;2022-08-01T15:15:36;26.20;99.90
8715;DHT22;4394;51.208;8.904;2022-08-01T15:18:25;26.30;99.90
8715;DHT22;4394;51.208;8.904;2022-08-01T15:21:13;26.00;99.90
8715;DHT22;4394;51.208;8.904;2022-08-01T15:24:22;25.90;99.90
8715;DHT22;4394;51.208;8.904;2022-08-01T15:27:11;26.00;99.90
8715;DHT22;4394;51.208;8.904;2022-08-01T15:29:59;26.00;99.90
8715;DHT22;4394;51.208;8.904;2022-08-01T15:32:48;26.00;99.90
8715;DHT22;4394;51.208;8.904;2022-08-01T15:35:37;25.90;99.90
8715;DHT22;4394;51.208;8.904;2022-08-01T15:38:25;25.90;99.90
8715;DHT22;4394;51.208;8.904;2022-08-01T15:41:13;26.10;99.90
8715;DHT22;4394;51.208;8.904;2022-08-01T15:44:03;26.20;99.90
8715;DHT22;4394;51.208;8.904;2022-08-01T15:46:51;26.30;99.90
8715;DHT22;4394;51.208;8.904;2022-08-01T15:49:39;26.30;99.90
8715;DHT22;4394;51.208;8.904;2022-08-01T15:52:27;26.30;99.90
8715;DHT22;4394;51.208;8.904;2022-08-01T15:55:17;26.00;99.90
8715;DHT22;4394;51.208;8.904;2022-08-01T15:58:06;25.90;99.90
8715;DHT22;4394;51.208;8.904;2022-08-01T16:00:58;25.90;99.90
8715;DHT22;4394;51.208;8.904;2022-08-01T16:03:46;25.60;99.90
8715;DHT22;4394;51.208;8.904;2022-08-01T16:06:35;25.60;99.90
8715;DHT22;4394;51.208;8.904;2022-08-01T16:09:23;25.60;99.90
8715;DHT22;4394;51.208;8.904;2022-08-01T16:12:12;25.50;99.90
8715;DHT22;4394;51.208;8.904;2022-08-01T16:15:00;25.30;99.90
8715;DHT22;4394;51.208;8.904;2022-08-01T16:17:50;25.20;99.90
8715;DHT22;4394;51.208;8.904;2022-08-01T16:20:38;25.20;99.90
8715;DHT22;4394;51.208;8.904;2022-08-01T16:23:31;25.20;99.90
8715;DHT22;4394;51.208;8.904;2022-08-01T16:26:19;25.30;99.90
8715;DHT22;4394;51.208;8.904;2022-08-01T16:29:13;25.40;99.90
8715;DHT22;4394;51.208;8.904;2022-08-01T16:32:02;25.50;99.90
8715;DHT22;4394;51.208;8.904;2022-08-01T16:35:11;25.40;99.90
8715;DHT22;4394;51.208;8.904;2022-08-01T16:37:59;25.40;99.90
8715;DHT22;4394;51.208;8.904;2022-08-01T16:40:47;25.50;99.90
8715;DHT22;4394;51.208;8.904;2022-08-01T16:43:35;25.50;99.90
8715;DHT22;4394;51.208;8.904;2022-08-01T16:46:31;25.50;99.90
8715;DHT22;4394;51.208;8.904;2022-08-01T16:49:19;25.50;99.90
8715;DHT22;4394;51.208;8.904;2022-08-01T16:52:09;25.50;99.90
8715;DHT22;4394;51.208;8.904;2022-08-01T16:54:57;25.50;99.90
8715;DHT22;4394;51.208;8.904;2022-08-01T16:57:45;25.50;99.90
8715;DHT22;4394;51.208;8.904;2022-08-01T17:00:33;25.20;99.90
8715;DHT22;4394;51.208;8.904;2022-08-01T17:03:21;25.00;99.90
8715;DHT22;4394;51.208;8.904;2022-08-01T17:06:29;25.00;99.90
8715;DHT22;4394;51.208;8.904;2022-08-01T17:09:22;24.80;99.90
8715;DHT22;4394;51.208;8.904;2022-08-01T17:12:10;24.50;99.90
8715;DHT22;4394;51.208;8.904;2022-08-01T17:15:08;24.40;99.90
8715;DHT22;4394;51.208;8.904;2022-08-01T17:17:56;24.30;99.90
8715;DHT22;4394;51.208;8.904;2022-08-01T17:20:44;24.20;99.90
8715;DHT22;4394;51.208;8.904;2022-08-01T17:23:34;24.10;99.90
8715;DHT22;4394;51.208;8.904;2022-08-01T17:26:23;24.00;99.90
8715;DHT22;4394;51.208;8.904;2022-08-01T17:29:11;23.90;99.90
8715;DHT22;4394;51.208;8.904;2022-08-01T17:31:59;23.80;99.90
8715;DHT22;4394;51.208;8.904;2022-08-01T17:34:48;23.80;99.90
8715;DHT22;4394;51.208;8.904;2022-08-01T17:37:36;23.70;99.90
8715;DHT22;4394;51.208;8.904;2022-08-01T17:40:24;23.80;99.90
8715;DHT22;4394;51.208;8.904;2022-08-01T17:43:27;23.90;99.90
8715;DHT22;4394;51.208;8.904;2022-08-01T17:46:15;24.00;99.90
8715;DHT22;4394;51.208;8.904;2022-08-01T17:49:04;23.90;99.90
8715;DHT22;4394;51.208;8.904;2022-08-01T17:51:52;24.00;99.90
8715;DHT22;4394;51.208;8.904;2022-08-01T17:54:41;23.90;99.90
8715;DHT22;4394;51.208;8.904;2022-08-01T17:57:29;23.80;99.90
8715;DHT22;4394;51.208;8.904;2022-08-01T18:00:18;23.80;99.90
8715;DHT22;4394;51.208;8.904;2022-08-01T18:03:06;23.90;99.90
8715;DHT22;4394;51.208;8.904;2022-08-01T18:05:54;24.10;99.90
8715;DHT22;4394;51.208;8.904;2022-08-01T18:08:43;24.40;99.90
8715;DHT22;4394;51.208;8.904;2022-08-01T18:11:33;24.70;99.90
8715;DHT22;4394;51.208;8.904;2022-08-01T18:14:23;25.00;99.90
8715;DHT22;4394;51.208;8.904;2022-08-01T18:17:28;25.20;99.90
8715;DHT22;4394;51.208;8.904;2022-08-01T18:20:16;25.10;99.90
8715;DHT22;4394;51.208;8.904;2022-08-01T18:23:03;25.10;99.90
8715;DHT22;4394;51.208;8.904;2022-08-01T18:25:55;25.00;99.90
8715;DHT22;4394;51.208;8.904;2022-08-01T18:28:46;24.90;99.90
8715;DHT22;4394;51.208;8.904;2022-08-01T18:31:35;24.90;99.90
8715;DHT22;4394;51.208;8.904;2022-08-01T18:34:24;25.00;99.90
8715;DHT22;4394;51.208;8.904;2022-08-01T18:37:13;24.90;99.90
8715;DHT22;4394;51.208;8.904;2022-08-01T18:40:05;24.80;99.90